Time;durP1;ratioP1;P1;durP2;ratioP2;P2;SDS_P1;SDS_P2;PMS_P1;PMS_P2;Temp;Humidity;BMP_temperature;BMP_pressure;BME280_temperature;BME280_humidity;BME280_pressure;Samples;Min_cycle;Max_cycle;Signal;HPM_P1;HPM_P2
2023/03/29 00:01:24;;;;;;;3.80;3.40;;;;;;;2.95;100.00;96802.34;5011427;28;105425;-63
2023/03/29 00:03:52;;;;;;;3.33;3.03;;;;;;;2.96;100.00;96819.72;5010126;28;105392;-63
2023/03/29 00:06:21;;;;;;;3.73;3.10;;;;;;;3.06;100.00;96801.00;5011631;28;101937;-63
2023/03/29 00:08:49;;;;;;;3.40;2.70;;;;;;;3.14;100.00;96777.19;5022275;28;105311;-63
2023/03/29 00:11:17;;;;;;;3.00;2.70;;;;;;;2.96;100.00;96782.13;5028655;28;105661;-63
2023/03/29 00:13:44;;;;;;;4.07;2.77;;;;;;;3.06;100.00;96793.13;5012565;28;101954;-63
2023/03/29 00:16:12;;;;;;;3.93;2.60;;;;;;;3.14;100.00;96809.53;5013645;28;104782;-63
2023/03/29 00:18:40;;;;;;;2.93;2.50;;;;;;;3.17;100.00;96818.84;5030049;28;103525;-63
2023/03/29 00:21:07;;;;;;;3.20;2.43;;;;;;;3.28;100.00;96841.94;5029695;28;105115;-63
2023/03/29 00:23:35;;;;;;;4.70;2.57;;;;;;;3.34;100.00;96849.06;5029565;28;103877;-63
2023/03/29 00:26:02;;;;;;;2.80;2.00;;;;;;;3.38;100.00;96855.56;5015393;28;101809;-63
2023/03/29 00:28:30;;;;;;;2.27;1.53;;;;;;;3.47;100.00;96857.81;5027398;28;104774;-63
2023/03/29 00:31:05;;;;;;;3.07;1.77;;;;;;;3.54;100.00;96852.56;5029654;28;105122;-63
2023/03/29 00:33:33;;;;;;;1.80;1.70;;;;;;;3.56;100.00;96837.44;5020643;28;101868;-63
2023/03/29 00:36:03;;;;;;;1.67;1.57;;;;;;;3.54;100.00;96876.25;5015327;28;103775;-63
2023/03/29 00:38:30;;;;;;;1.60;1.50;;;;;;;3.55;100.00;96852.38;5024656;28;104960;-63
2023/03/29 00:40:57;;;;;;;1.90;1.70;;;;;;;3.49;100.00;96857.63;5014703;28;105230;-63
2023/03/29 00:43:25;;;;;;;1.60;1.50;;;;;;;3.51;100.00;96877.47;5029328;28;104168;-63
2023/03/29 00:45:53;;;;;;;1.90;1.50;;;;;;;3.55;100.00;96872.63;5029883;28;101838;-63
2023/03/29 00:48:23;;;;;;;1.70;1.60;;;;;;;3.57;100.00;96883.75;5027672;28;105505;-63
2023/03/29 00:50:54;;;;;;;1.67;1.57;;;;;;;3.63;100.00;96896.94;5019556;28;104930;-63
2023/03/29 00:53:29;;;;;;;2.50;1.70;;;;;;;3.63;100.00;96925.88;5009741;28;101967;-63
2023/03/29 00:56:03;;;;;;;1.87;1.63;;;;;;;3.67;100.00;96931.53;5009687;28;105289;-63
2023/03/29 00:58:35;;;;;;;1.63;1.50;;;;;;;3.72;100.00;96926.53;5009094;28;104167;-63
2023/03/29 01:01:07;;;;;;;2.20;1.47;;;;;;;3.70;100.00;96941.66;5013111;28;101869;-63
2023/03/29 01:03:44;;;;;;;1.30;1.27;;;;;;;3.84;100.00;96946.00;5009148;28;105200;-63
2023/03/29 01:06:16;;;;;;;2.43;1.77;;;;;;;4.00;100.00;96948.31;5009640;28;101835;-63
2023/03/29 01:08:50;;;;;;;2.37;1.57;;;;;;;4.00;100.00;96950.94;5018065;28;105311;-63
2023/03/29 01:11:22;;;;;;;2.80;2.23;;;;;;;3.96;100.00;96953.16;5030431;28;102856;-63
2023/03/29 01:13:55;;;;;;;2.83;1.80;;;;;;;3.89;100.00;96954.13;5029631;28;101884;-63
2023/03/29 01:16:25;;;;;;;2.17;1.90;;;;;;;3.89;100.00;96948.84;5028816;28;105419;-63
2023/03/29 01:18:52;;;;;;;3.90;1.73;;;;;;;3.85;100.00;96939.72;5018744;28;106295;-63
2023/03/29 01:21:23;;;;;;;2.60;2.30;;;;;;;3.88;100.00;96939.34;5009497;28;101980;-63
2023/03/29 01:24:47;;;;;;;3.57;2.13;;;;;;;3.83;100.00;96933.84;5011960;28;105322;-63
2023/03/29 01:27:24;;;;;;;1.87;1.50;;;;;;;3.89;100.00;96933.91;4929614;28;102357;-63
2023/03/29 01:29:57;;;;;;;1.30;1.20;;;;;;;3.96;100.00;96928.66;4913324;28;105327;-63
2023/03/29 01:32:34;;;;;;;1.10;1.10;;;;;;;3.97;100.00;96922.38;4945071;28;103151;-63
2023/03/29 01:35:09;;;;;;;1.30;1.20;;;;;;;3.99;100.00;96923.00;4948982;28;101932;-63
2023/03/29 01:37:41;;;;;;;1.30;1.20;;;;;;;4.02;100.00;96912.06;4931789;28;105553;-63
2023/03/29 01:40:09;;;;;;;1.50;1.33;;;;;;;4.03;100.00;96908.41;4912341;28;105634;-63
2023/03/29 01:42:45;;;;;;;2.10;1.30;;;;;;;4.08;100.00;96903.38;4929371;28;102344;-63
2023/03/29 01:45:22;;;;;;;1.63;1.20;;;;;;;4.04;100.00;96905.59;4922033;28;105279;-63
2023/03/29 01:47:58;;;;;;;1.33;1.10;;;;;;;4.01;100.00;96903.38;4934681;28;105650;-63
2023/03/29 01:50:34;;;;;;;3.77;1.00;;;;;;;4.01;100.00;96899.94;4959839;28;105416;-63
2023/03/29 01:53:08;;;;;;;1.00;1.00;;;;;;;3.98;100.00;96897.72;4912381;28;106108;-63
2023/03/29 01:55:38;;;;;;;1.00;0.90;;;;;;;3.98;100.00;96897.72;4912756;28;102160;-63
2023/03/29 01:58:08;;;;;;;0.90;0.90;;;;;;;3.89;100.00;96889.19;4912670;28;105169;-63
2023/03/29 02:00:39;;;;;;;0.80;0.80;;;;;;;3.76;100.00;96875.16;4923638;28;105640;-63
2023/03/29 02:03:09;;;;;;;0.80;0.80;;;;;;;3.74;100.00;96869.25;5011665;28;101802;-63
2023/03/29 02:05:38;;;;;;;1.00;1.00;;;;;;;3.82;100.00;96853.31;5028913;28;105816;-63
2023/03/29 02:08:09;;;;;;;3.73;2.63;;;;;;;3.87;100.00;96850.91;5026387;28;104615;-63
2023/03/29 02:10:37;;;;;;;3.30;2.40;;;;;;;3.85;100.00;96848.47;5032052;28;101749;-63
2023/03/29 02:13:05;;;;;;;2.93;1.40;;;;;;;3.77;100.00;96855.72;5023477;28;105130;-63
2023/03/29 02:15:33;;;;;;;1.30;1.20;;;;;;;3.69;100.00;96850.63;5017895;28;102121;-63
2023/03/29 02:18:02;;;;;;;1.83;1.20;;;;;;;3.70;100.00;96831.19;5022942;28;104961;-63
2023/03/29 02:20:32;;;;;;;0.70;0.70;;;;;;;3.74;100.00;96814.03;5007700;28;105141;-63
2023/03/29 02:23:07;;;;;;;0.90;0.90;;;;;;;3.75;100.00;96821.72;5011544;28;101969;-63
2023/03/29 02:25:36;;;;;;;1.20;1.20;;;;;;;3.67;100.00;96819.25;5028463;28;104598;-63
2023/03/29 02:28:04;;;;;;;1.60;1.10;;;;;;;3.71;100.00;96796.81;5021328;28;103872;-63
2023/03/29 02:30:41;;;;;;;1.57;1.20;;;;;;;3.80;100.00;96805.34;5022086;28;101667;-63
2023/03/29 02:33:16;;;;;;;1.10;1.10;;;;;;;3.79;100.00;96793.22;5020705;28;105101;-63
2023/03/29 02:35:52;;;;;;;1.23;1.07;;;;;;;3.88;100.00;96774.41;5011390;28;102215;-63
2023/03/29 02:38:24;;;;;;;1.07;1.07;;;;;;;3.84;100.00;96789.00;5011815;28;104814;-63
2023/03/29 02:40:52;;;;;;;1.23;1.13;;;;;;;3.84;100.00;96777.63;5016479;28;104929;-63
2023/03/29 02:43:20;;;;;;;1.27;1.20;;;;;;;3.88;100.00;96760.47;5032047;28;101901;-63
2023/03/29 02:45:48;;;;;;;1.40;1.30;;;;;;;3.93;100.00;96739.63;5031269;28;105293;-63
2023/03/29 02:48:20;;;;;;;2.37;1.10;;;;;;;3.87;100.00;96756.22;5024057;28;105474;-63
2023/03/29 02:50:50;;;;;;;1.33;1.27;;;;;;;3.82;100.00;96753.38;5011845;28;101710;-63
2023/03/29 02:53:22;;;;;;;1.20;1.10;;;;;;;3.90;100.00;96740.00;5015383;28;105537;-63
2023/03/29 02:55:51;;;;;;;1.30;1.20;;;;;;;3.80;100.00;96729.06;5012413;28;102231;-63
2023/03/29 02:58:19;;;;;;;1.50;1.40;;;;;;;3.83;100.00;96712.91;5024319;28;105177;-63
2023/03/29 03:00:48;;;;;;;1.50;1.40;;;;;;;3.86;100.00;96718.56;5013816;28;103176;-63
2023/03/29 03:03:18;;;;;;;1.47;1.37;;;;;;;3.87;100.00;96701.75;5031637;28;101878;-63
2023/03/29 03:05:49;;;;;;;1.30;1.20;;;;;;;3.89;100.00;96709.47;5031048;28;105117;-63
2023/03/29 03:08:16;;;;;;;2.10;1.33;;;;;;;3.73;100.00;96707.22;5030731;28;105160;-63
2023/03/29 03:10:44;;;;;;;1.60;1.50;;;;;;;3.78;100.00;96710.84;5029994;28;101982;-63
2023/03/29 03:13:12;;;;;;;1.33;1.23;;;;;;;3.85;100.00;96713.50;5031108;28;105016;-63
2023/03/29 03:15:41;;;;;;;1.20;1.20;;;;;;;3.69;100.00;96716.50;5033710;28;105162;-63
2023/03/29 03:18:09;;;;;;;1.87;1.50;;;;;;;3.54;100.00;96707.97;5030958;28;105620;-63
2023/03/29 03:20:38;;;;;;;2.27;2.00;;;;;;;3.72;100.00;96709.03;5026839;28;105171;-63
2023/03/29 03:23:07;;;;;;;1.70;1.20;;;;;;;3.67;100.00;96708.00;5011063;28;101840;-63
2023/03/29 03:25:35;;;;;;;1.50;1.40;;;;;;;3.59;100.00;96702.94;5013687;28;105355;-63
2023/03/29 03:28:03;;;;;;;1.10;1.10;;;;;;;3.59;100.00;96705.56;5030597;28;104446;-63
2023/03/29 03:30:32;;;;;;;2.13;1.40;;;;;;;3.56;100.00;96711.22;5031319;28;101817;-63
2023/03/29 03:33:19;;;;;;;1.20;1.10;;;;;;;3.44;100.00;96707.56;5029605;27;102238;-63
2023/03/29 03:36:07;;;;;;;1.10;1.10;;;;;;;3.35;100.00;96704.31;5028398;28;102211;-63
2023/03/29 03:38:36;;;;;;;1.20;1.20;;;;;;;3.50;100.00;96704.94;5017734;28;101839;-63
2023/03/29 03:41:05;;;;;;;1.30;1.30;;;;;;;3.48;100.00;96699.06;5007007;28;105441;-63
2023/03/29 03:43:35;;;;;;;1.53;1.43;;;;;;;3.47;100.00;96702.72;5011161;28;101979;-63
2023/03/29 03:46:02;;;;;;;1.30;1.20;;;;;;;3.46;100.00;96702.91;5009763;28;104992;-63
2023/03/29 03:48:30;;;;;;;1.10;1.10;;;;;;;3.52;100.00;96691.59;5010353;28;105089;-63
2023/03/29 03:51:24;;;;;;;1.53;1.17;;;;;;;3.60;100.00;96696.69;5011196;28;101888;-63
2023/03/29 03:54:11;;;;;;;1.13;1.13;;;;;;;3.62;100.00;96690.22;5010943;28;103751;-63
2023/03/29 03:57:06;;;;;;;1.20;1.10;;;;;;;3.67;100.00;96681.72;5011527;28;103917;-63
2023/03/29 03:59:43;;;;;;;1.30;1.20;;;;;;;3.62;100.00;96673.63;5010909;28;102007;-63
2023/03/29 04:02:15;;;;;;;2.17;1.50;;;;;;;3.45;100.00;96685.53;5013820;28;105299;-63
2023/03/29 04:05:01;;;;;;;1.60;1.50;;;;;;;3.45;100.00;96664.50;5010897;28;101845;-63
2023/03/29 04:07:35;;;;;;;1.67;1.57;;;;;;;3.58;100.00;96689.00;5010861;28;104790;-63
2023/03/29 04:10:17;;;;;;;1.77;1.30;;;;;;;3.36;100.00;96684.91;5010254;28;105316;-63
2023/03/29 04:13:21;;;;;;;2.40;1.70;;;;;;;3.47;100.00;96675.59;5012000;28;101823;-63
2023/03/29 04:16:14;;;;;;;1.73;1.63;;;;;;;3.58;100.00;96677.66;5010545;28;103888;-63
2023/03/29 04:18:40;;;;;;;1.57;1.47;;;;;;;3.47;100.00;96675.59;5009769;28;104073;-63
2023/03/29 04:21:08;;;;;;;1.90;1.80;;;;;;;3.56;100.00;96669.16;5010259;28;102268;-63
2023/03/29 04:23:45;;;;;;;2.40;2.03;;;;;;;3.65;100.00;96665.34;5010532;28;105354;-63
2023/03/29 04:26:12;;;;;;;3.03;2.67;;;;;;;3.66;100.00;96653.81;5021470;28;101788;-63
2023/03/29 04:28:51;;;;;;;2.20;2.00;;;;;;;3.50;100.00;96662.88;5013000;28;104082;-63
2023/03/29 04:31:35;;;;;;;2.07;1.93;;;;;;;3.54;100.00;96640.44;5010000;28;105482;-62
2023/03/29 04:35:03;;;;;;;2.67;2.13;;;;;;;3.44;100.00;96653.16;5010284;28;101773;-63
2023/03/29 04:37:31;;;;;;;2.20;2.00;;;;;;;3.56;100.00;96648.91;5023474;28;105126;-63
2023/03/29 04:40:00;;;;;;;3.27;2.33;;;;;;;3.62;100.00;96639.44;5009433;28;105411;-63
2023/03/29 04:42:30;;;;;;;2.70;1.57;;;;;;;3.44;100.00;96653.16;5021342;28;101850;-63
2023/03/29 04:45:14;;;;;;;1.60;1.53;;;;;;;3.36;100.00;96642.00;5064507;27;104829;-63
2023/03/29 04:47:59;;;;;;;1.47;1.40;;;;;;;3.55;100.00;96636.78;5032735;28;103959;-63
2023/03/29 04:50:26;;;;;;;1.70;1.60;;;;;;;3.60;100.00;96633.56;5029675;28;102496;-63
2023/03/29 04:52:53;;;;;;;2.60;2.40;;;;;;;3.55;100.00;96636.00;5029306;28;105333;-63
2023/03/29 04:55:22;;;;;;;2.33;2.13;;;;;;;3.58;100.00;96643.47;5029858;28;101824;-63
2023/03/29 04:57:59;;;;;;;3.13;2.20;;;;;;;3.75;100.00;96636.81;5029285;27;104973;-63
2023/03/29 05:00:31;;;;;;;3.40;3.10;;;;;;;3.80;100.00;96629.13;5029173;28;105417;-63
2023/03/29 05:03:10;;;;;;;4.80;4.40;;;;;;;3.80;100.00;96637.84;5027982;27;101638;-63
2023/03/29 05:05:41;;;;;;;3.40;2.93;;;;;;;3.79;100.00;96641.47;5029864;28;105254;-63
2023/03/29 05:08:09;;;;;;;2.73;2.53;;;;;;;3.79;100.00;96638.84;5029184;28;105321;-61
2023/03/29 05:11:00;;;;;;;2.73;2.50;;;;;;;3.82;100.00;96637.63;5034283;28;102310;-62
2023/03/29 05:13:28;;;;;;;2.80;2.60;;;;;;;3.86;100.00;96652.81;5029120;28;105264;-61
2023/03/29 05:15:56;;;;;;;4.13;3.23;;;;;;;3.82;100.00;96635.00;5029614;28;102083;-61
2023/03/29 05:18:24;;;;;;;3.73;2.60;;;;;;;3.80;100.00;96629.13;5029011;28;105521;-61
2023/03/29 05:20:51;;;;;;;2.70;2.50;;;;;;;3.78;100.00;96646.94;5028631;28;104090;-62
2023/03/29 05:23:21;;;;;;;3.13;2.27;;;;;;;3.66;100.00;96638.03;5029400;28;101860;-61
2023/03/29 05:26:08;;;;;;;2.00;1.90;;;;;;;3.64;100.00;96651.38;5028000;28;102038;-61
2023/03/29 05:28:38;;;;;;;2.10;1.90;;;;;;;3.71;100.00;96657.44;5028882;28;105525;-61
2023/03/29 05:31:05;;;;;;;2.30;2.10;;;;;;;3.83;100.00;96644.50;5029131;28;101943;-61
2023/03/29 05:33:35;;;;;;;1.90;1.80;;;;;;;3.87;100.00;96640.47;5032054;28;104396;-61
2023/03/29 05:36:05;;;;;;;1.70;1.60;;;;;;;3.87;100.00;96640.47;5029252;28;101700;-61
2023/03/29 05:38:32;;;;;;;7.83;5.80;;;;;;;3.87;100.00;96635.22;5029018;28;104930;-61
2023/03/29 05:41:00;;;;;;;5.93;5.40;;;;;;;3.92;100.00;96635.38;5028420;28;105015;-61
2023/03/29 05:43:33;;;;;;;5.07;3.80;;;;;;;3.98;100.00;96631.97;5030422;27;101743;-61
2023/03/29 05:46:00;;;;;;;4.70;4.13;;;;;;;4.07;100.00;96628.91;5028947;28;103662;-61
2023/03/29 05:48:30;;;;;;;4.77;2.90;;;;;;;4.14;100.00;96631.56;5028607;28;104835;-61
2023/03/29 05:50:58;;;;;;;3.87;3.30;;;;;;;4.21;100.00;96640.25;5029214;28;102159;-61
2023/03/29 05:53:26;;;;;;;5.23;4.63;;;;;;;4.28;100.00;96622.59;5011491;28;104929;-61
2023/03/29 05:55:54;;;;;;;9.07;8.17;;;;;;;4.35;100.00;96621.56;5011513;28;105186;-61
2023/03/29 05:58:25;;;;;;;3.00;2.67;;;;;;;4.36;100.00;96627.66;5009082;28;105354;-61
2023/03/29 06:00:54;;;;;;;3.07;2.80;;;;;;;4.46;100.00;96625.38;5007996;28;105564;-61
2023/03/29 06:03:51;;;;;;;3.27;2.30;;;;;;;4.59;100.00;96626.16;5013128;28;102183;-61
2023/03/29 06:06:21;;;;;;;2.40;2.20;;;;;;;4.74;100.00;96629.38;5008500;28;103592;-61
2023/03/29 06:08:49;;;;;;;3.80;3.33;;;;;;;4.82;100.00;96620.41;5008143;28;105404;-61
2023/03/29 06:11:23;;;;;;;2.00;1.80;;;;;;;4.95;100.00;96620.34;5012352;28;102030;-61
2023/03/29 06:14:12;;;;;;;3.37;1.70;;;;;;;5.08;100.00;96625.59;5010720;28;102098;-61
2023/03/29 06:16:45;;;;;;;2.80;1.90;;;;;;;5.14;100.00;96620.25;5011206;28;105133;-61
2023/03/29 06:19:13;;;;;;;2.40;2.00;;;;;;;5.21;100.00;96626.31;5014944;28;102039;-61
2023/03/29 06:21:41;;;;;;;2.20;2.00;;;;;;;5.24;100.00;96615.34;5011495;28;105109;-61
2023/03/29 06:24:11;;;;;;;5.90;2.00;;;;;;;5.26;100.00;96615.13;5011817;28;102315;-61
2023/03/29 06:26:45;;;;;;;7.20;1.77;;;;;;;5.26;100.00;96618.59;5012140;28;105278;-61
2023/03/29 06:29:12;;;;;;;2.20;2.00;;;;;;;5.29;100.00;96610.25;5045039;27;105373;-61
2023/03/29 06:31:42;;;;;;;3.53;1.97;;;;;;;5.33;100.00;96605.34;5012042;28;101820;-61
2023/03/29 06:34:22;;;;;;;4.07;2.30;;;;;;;5.37;100.00;96619.75;5012137;28;105084;-62
2023/03/29 06:37:12;;;;;;;3.37;2.00;;;;;;;5.39;100.00;96609.78;5012196;28;103722;-62
2023/03/29 06:39:39;;;;;;;2.40;1.50;;;;;;;5.44;100.00;96604.66;5015216;28;101844;-61
2023/03/29 06:42:39;;;;;;;2.70;1.70;;;;;;;5.53;100.00;96608.69;5011136;28;103931;-61
2023/03/29 06:45:45;;;;;;;2.33;1.50;;;;;;;5.64;100.00;96603.53;5005238;28;102588;-61
2023/03/29 06:48:32;;;;;;;2.50;1.40;;;;;;;5.69;100.00;96608.16;5012599;28;103930;-61
2023/03/29 06:51:02;;;;;;;1.47;1.10;;;;;;;5.74;100.00;96611.75;5010935;28;104839;-61
2023/03/29 06:53:31;;;;;;;2.40;1.27;;;;;;;5.82;100.00;96618.63;5011647;28;101721;-61
2023/03/29 06:56:04;;;;;;;2.07;1.20;;;;;;;5.92;100.00;96621.59;5011687;28;103752;-61
2023/03/29 06:58:53;;;;;;;2.90;1.37;;;;;;;6.08;100.00;96626.34;5013036;27;104023;-61
2023/03/29 07:01:45;;;;;;;1.40;1.13;;;;;;;6.11;100.00;96629.34;5011540;28;102040;-61
2023/03/29 07:04:34;;;;;;;1.60;1.17;;;;;;;6.17;100.00;96630.34;5015425;27;102699;-61
2023/03/29 07:07:18;;;;;;;1.63;1.33;;;;;;;6.24;100.00;96631.91;5045288;27;101838;-61
2023/03/29 07:09:52;;;;;;;1.77;1.40;;;;;;;6.35;100.00;96640.91;5011540;28;103934;-61
2023/03/29 07:12:21;;;;;;;7.97;7.03;;;;;;;6.43;100.00;96643.31;5009045;28;102689;-62
2023/03/29 07:14:48;;;;;;;66.80;33.47;;;;;;;6.47;100.00;96653.19;5011276;28;101888;-61
2023/03/29 07:17:15;;;;;;;2.73;2.00;;;;;;;6.50;100.00;96659.88;5009595;28;105469;-61
2023/03/29 07:19:43;;;;;;;12.17;8.50;;;;;;;6.56;100.00;96659.00;5010165;28;105327;-61
2023/03/29 07:22:29;;;;;;;1.50;1.40;;;;;;;6.65;100.00;96660.34;5011182;28;102407;-61
2023/03/29 07:25:00;;;;;;;2.73;2.43;;;;;;;6.77;100.00;96669.16;5011244;28;104715;-61
2023/03/29 07:27:27;;;;;;;13.73;12.30;;;;;;;6.98;100.00;96663.44;5013742;28;105349;-61
2023/03/29 07:29:55;;;;;;;9.47;7.93;;;;;;;7.13;100.00;96677.06;5043984;27;104017;-61
2023/03/29 07:32:22;;;;;;;1.43;1.30;;;;;;;7.13;100.00;96671.78;5011749;28;102467;-61
2023/03/29 07:35:03;;;;;;;1.73;1.53;;;;;;;7.14;100.00;96671.56;5011112;28;101844;-61
2023/03/29 07:37:36;;;;;;;1.87;1.13;;;;;;;7.16;100.00;96664.25;5011114;28;104806;-61
2023/03/29 07:40:11;;;;;;;1.93;1.10;;;;;;;7.32;100.00;96676.81;5010092;28;105399;-61
2023/03/29 07:42:45;;;;;;;1.13;1.10;;;;;;;7.38;100.00;96670.66;5010744;28;101692;-61
2023/03/29 07:45:16;;;;;;;1.50;1.37;;;;;;;7.44;100.00;96680.34;5010878;28;104863;-61
2023/03/29 07:48:04;;;;;;;1.80;1.10;;;;;;;7.51;100.00;96685.53;5011208;28;104041;-61
2023/03/29 07:50:54;;;;;;;1.80;1.33;;;;;;;7.55;100.00;96682.25;5014229;28;101801;-61
2023/03/29 07:53:31;;;;;;;1.50;1.03;;;;;;;7.55;100.00;96687.53;5009830;28;105453;-61
2023/03/29 07:55:59;;;;;;;1.40;1.30;;;;;;;7.65;100.00;96676.41;5010979;28;101935;-61
2023/03/29 07:58:46;;;;;;;1.43;1.23;;;;;;;7.73;100.00;96674.25;5010719;28;105398;-61
2023/03/29 08:01:15;;;;;;;1.30;1.20;;;;;;;7.87;100.00;96685.47;5043691;27;105502;-61
2023/03/29 08:03:57;;;;;;;1.30;1.20;;;;;;;7.93;100.00;96684.56;5008915;28;101690;-61
2023/03/29 08:06:38;;;;;;;1.03;1.03;;;;;;;8.00;100.00;96682.59;5044250;27;103981;-61
2023/03/29 08:09:07;;;;;;;0.97;0.97;;;;;;;7.88;100.00;96676.47;5009834;28;105582;-61
2023/03/29 08:11:34;;;;;;;1.63;1.17;;;;;;;7.76;100.00;96687.03;5010224;28;101940;-61
2023/03/29 08:14:04;;;;;;;1.10;1.00;;;;;;;7.64;100.00;96688.03;5013473;28;104865;-62
2023/03/29 08:16:58;;;;;;;2.07;1.20;;;;;;;7.61;100.00;96691.13;5010161;28;101841;-61
2023/03/29 08:19:26;;;;;;;1.77;1.67;;;;;;;7.57;100.00;96700.53;5010184;28;105162;-61
2023/03/29 08:22:02;;;;;;;5.73;2.80;;;;;;;7.55;100.00;96692.84;5043414;27;104432;-61
2023/03/29 08:24:45;;;;;;;2.60;1.30;;;;;;;7.52;100.00;96692.47;5010216;28;101941;-61
2023/03/29 08:27:12;;;;;;;1.10;1.00;;;;;;;7.36;100.00;96695.75;5010276;28;103450;-61
2023/03/29 08:29:39;;;;;;;1.97;1.00;;;;;;;7.33;100.00;96698.81;5009657;28;104915;-61
2023/03/29 08:32:06;;;;;;;0.80;0.80;;;;;;;7.41;100.00;96695.88;5009090;28;101835;-62
2023/03/29 08:34:35;;;;;;;1.50;1.40;;;;;;;7.47;100.00;96693.13;5010174;28;105247;-61
2023/03/29 08:37:37;;;;;;;3.03;1.40;;;;;;;7.53;100.00;96702.03;5009390;28;104112;-61
2023/03/29 08:40:08;;;;;;;1.80;1.50;;;;;;;7.80;100.00;96693.47;5009772;28;105163;-61
2023/03/29 08:42:58;;;;;;;1.17;1.00;;;;;;;7.83;100.00;96698.34;5007562;28;102517;-61
2023/03/29 08:45:38;;;;;;;1.83;1.43;;;;;;;7.94;100.00;96697.56;5009832;28;102334;-61
2023/03/29 08:48:15;;;;;;;1.83;1.73;;;;;;;7.91;100.00;96692.72;5009841;28;104804;-61
2023/03/29 08:50:47;;;;;;;2.00;1.90;;;;;;;7.92;100.00;96694.31;5009352;28;105128;-61
2023/03/29 08:53:19;;;;;;;2.40;1.20;;;;;;;8.04;100.00;96686.41;5009538;28;101778;-61
2023/03/29 08:56:15;;;;;;;1.80;1.67;;;;;;;8.15;100.00;96686.47;5009418;28;105380;-61
2023/03/29 08:58:42;;;;;;;1.90;1.80;;;;;;;8.50;100.00;96681.22;5011093;28;102286;-61
2023/03/29 09:01:10;;;;;;;4.03;3.00;;;;;;;8.58;100.00;96689.66;5043527;27;105718;-61
2023/03/29 09:03:50;;;;;;;1.73;1.63;;;;;;;8.69;100.00;96685.38;4993874;28;105471;-61
2023/03/29 09:06:30;;;;;;;41.13;20.83;;;;;;;8.76;100.00;96692.16;5009694;28;101925;-61
2023/03/29 09:09:15;;;;;;;6.43;4.57;;;;;;;8.93;100.00;96692.25;5008401;28;104987;-61
2023/03/29 09:11:57;;;;;;;6.10;3.90;;;;;;;8.89;100.00;96685.81;5042662;27;105009;-61
2023/03/29 09:14:46;;;;;;;2.30;1.10;;;;;;;8.88;100.00;96684.22;5043229;27;101977;-61
2023/03/29 09:17:23;;;;;;;1.97;1.20;;;;;;;8.82;100.00;96685.94;5043306;27;105015;-61
2023/03/29 09:20:01;;;;;;;1.20;1.10;;;;;;;8.84;100.00;96685.72;5042431;27;105360;-61
2023/03/29 09:22:36;;;;;;;3.53;1.30;;;;;;;8.77;100.00;96677.09;5013889;28;101721;-61
2023/03/29 09:25:11;;;;;;;3.73;2.00;;;;;;;8.84;100.00;96683.06;4991996;28;106335;-61
2023/03/29 09:27:47;;;;;;;3.20;1.87;;;;;;;8.98;100.00;96668.50;5009425;28;102110;-61
2023/03/29 09:30:29;;;;;;;3.00;1.70;;;;;;;9.13;100.00;96661.69;5009332;28;104804;-61
2023/03/29 09:33:06;;;;;;;1.50;1.23;;;;;;;9.18;100.00;96658.31;5008396;28;105401;-61
2023/03/29 09:35:53;;;;;;;1.53;1.30;;;;;;;9.16;100.00;96669.16;5009402;28;102424;-61
2023/03/29 09:38:22;;;;;;;2.90;1.60;;;;;;;9.10;100.00;96661.34;5043146;27;105352;-61
2023/03/29 09:40:54;;;;;;;2.57;1.27;;;;;;;8.93;100.00;96665.72;5008389;28;105487;-61
2023/03/29 09:43:31;;;;;;;2.77;1.13;;;;;;;8.91;100.00;96662.53;5043075;27;102391;-61
2023/03/29 09:46:04;;;;;;;3.03;1.20;;;;;;;9.00;100.00;96666.44;5045355;27;105455;-61
2023/03/29 09:48:36;;;;;;;1.20;1.03;;;;;;;8.94;100.00;96664.72;5009011;28;102252;-61
2023/03/29 09:51:07;;;;;;;3.07;1.17;;;;;;;9.00;100.00;96667.22;5009152;28;103599;-61
2023/03/29 09:53:38;;;;;;;2.47;1.27;;;;;;;9.03;100.00;96661.47;5008096;28;104130;-61
2023/03/29 09:56:20;;;;;;;2.90;1.30;;;;;;;9.16;100.00;96655.09;5008868;28;101946;-61
2023/03/29 09:58:52;;;;;;;1.83;1.20;;;;;;;9.27;100.00;96660.34;5008976;28;104796;-61
2023/03/29 10:01:20;;;;;;;2.73;1.03;;;;;;;9.40;100.00;96661.94;5008233;28;104896;-61
2023/03/29 10:03:52;;;;;;;2.37;1.10;;;;;;;9.45;100.00;96656.72;5008827;28;101949;-61
2023/03/29 10:06:22;;;;;;;2.37;1.30;;;;;;;9.55;100.00;96657.72;5009021;28;104108;-61
2023/03/29 10:08:57;;;;;;;4.97;1.40;;;;;;;9.69;100.00;96659.06;5011510;28;105616;-61
2023/03/29 10:11:31;;;;;;;1.83;1.10;;;;;;;9.61;100.00;96658.63;5008855;28;105033;-61
2023/03/29 10:14:03;;;;;;;3.93;1.53;;;;;;;9.61;100.00;96653.31;5007994;28;106587;-61
2023/03/29 10:16:35;;;;;;;1.33;1.00;;;;;;;9.65;100.00;96649.16;5042195;27;101763;-61
2023/03/29 10:19:18;;;;;;;1.90;1.47;;;;;;;9.81;100.00;96635.91;5008438;28;104905;-61
2023/03/29 10:21:48;;;;;;;2.23;1.20;;;;;;;9.80;100.00;96639.59;5007633;28;105025;-61
2023/03/29 10:24:19;;;;;;;1.30;1.20;;;;;;;10.04;100.00;96635.78;5008523;28;101813;-61
2023/03/29 10:26:48;;;;;;;1.03;1.00;;;;;;;9.90;100.00;96638.97;5008609;28;105781;-61
2023/03/29 10:29:16;;;;;;;131.73;14.80;;;;;;;10.09;100.00;96641.19;5008055;28;105621;-61
2023/03/29 10:31:43;;;;;;;7.83;2.20;;;;;;;10.27;100.00;96629.53;5011118;28;102225;-61
2023/03/29 10:34:14;;;;;;;1.10;1.00;;;;;;;10.29;100.00;96633.56;5007798;28;105247;-61
2023/03/29 10:36:43;;;;;;;3.50;1.57;;;;;;;10.62;100.00;96630.03;5008508;28;102032;-61
2023/03/29 10:39:13;;;;;;;1.87;1.70;;;;;;;10.95;100.00;96619.34;5008426;28;105051;-61
2023/03/29 10:41:40;;;;;;;2.03;1.20;;;;;;;10.77;100.00;96612.47;5007641;28;105261;-61
2023/03/29 10:44:07;;;;;;;2.57;1.40;;;;;;;10.97;100.00;96607.38;5008277;28;101835;-61
2023/03/29 10:46:41;;;;;;;2.43;1.83;;;;;;;10.80;100.00;96600.53;5008375;28;103701;-61
2023/03/29 10:49:18;;;;;;;1.40;1.30;;;;;;;10.79;100.00;96602.38;5009197;28;102905;-61
2023/03/29 10:51:45;;;;;;;2.57;1.20;;;;;;;10.80;100.00;96595.97;5008124;28;102461;-61
2023/03/29 10:54:16;;;;;;;1.33;1.20;;;;;;;11.12;100.00;96604.91;5012293;28;102565;-61
2023/03/29 10:56:47;;;;;;;3.67;1.40;;;;;;;11.15;100.00;96601.75;5010714;28;101882;-61
2023/03/29 10:59:24;;;;;;;1.63;0.87;;;;;;;11.02;100.00;96602.13;5013314;28;102278;-61
2023/03/29 11:02:04;;;;;;;1.53;1.07;;;;;;;11.08;100.00;96598.50;5011071;28;105658;-61
2023/03/29 11:04:42;;;;;;;2.57;1.13;;;;;;;11.22;100.00;96605.03;5045220;27;101904;-61
2023/03/29 11:07:25;;;;;;;0.93;0.93;;;;;;;10.85;100.00;96608.56;5013219;28;102326;-61
2023/03/29 11:09:59;;;;;;;1.80;1.40;;;;;;;10.78;100.00;96597.28;5010623;28;105866;-61
2023/03/29 11:12:34;;;;;;;2.33;1.10;;;;;;;10.74;100.00;96590.88;5011363;28;101808;-61
2023/03/29 11:15:13;;;;;;;1.10;1.00;;;;;;;10.78;100.00;96592.78;5014086;28;104874;-61
2023/03/29 11:17:55;;;;;;;1.63;1.10;;;;;;;10.68;100.00;96592.63;5010900;28;101955;-61
2023/03/29 11:20:32;;;;;;;1.00;1.00;;;;;;;11.13;100.00;96571.13;5010707;28;105502;-61
2023/03/29 11:23:09;;;;;;;1.40;1.17;;;;;;;11.39;100.00;96579.13;5010681;28;105446;-61
2023/03/29 11:25:45;;;;;;;5.13;1.63;;;;;;;11.70;100.00;96572.28;5011309;28;101891;-61
2023/03/29 11:28:21;;;;;;;1.70;1.10;;;;;;;12.00;100.00;96572.53;5012660;28;102315;-61
2023/03/29 11:30:58;;;;;;;5.80;1.40;;;;;;;12.06;100.00;96563.53;5011768;28;102518;-61
2023/03/29 11:33:37;;;;;;;3.93;1.40;;;;;;;12.06;99.61;96551.03;5012647;28;101793;-61
2023/03/29 11:36:13;;;;;;;1.07;1.07;;;;;;;12.02;95.22;96551.75;5011126;28;105629;-61
2023/03/29 11:38:47;;;;;;;1.00;1.00;;;;;;;12.14;96.05;96550.53;5015315;28;102717;-61
2023/03/29 11:41:18;;;;;;;1.63;1.10;;;;;;;11.96;95.38;96556.28;5012743;28;102490;-61
2023/03/29 11:43:49;;;;;;;2.07;1.00;;;;;;;12.16;97.69;96553.72;5011563;28;102570;-61
2023/03/29 11:46:21;;;;;;;1.33;0.90;;;;;;;12.13;95.74;96562.25;5044565;27;101741;-61
2023/03/29 11:48:56;;;;;;;1.87;0.93;;;;;;;12.29;97.59;96544.50;5012268;28;102860;-61
2023/03/29 11:51:26;;;;;;;1.90;0.80;;;;;;;12.30;95.52;96546.09;5011531;28;103098;-61
2023/03/29 11:54:03;;;;;;;1.23;0.90;;;;;;;12.50;95.59;96543.56;5010670;28;101961;-61
2023/03/29 11:56:36;;;;;;;3.30;0.87;;;;;;;12.71;86.53;96546.06;5012815;28;102591;-61